createdAt,value
2023-03-29T00:14:25.351Z,12.5
2023-03-29T02:14:45.572Z,12.6
2023-03-29T04:07:33.604Z,12.5
2023-03-29T05:07:43.646Z,12.5
2023-03-29T05:22:52.068Z,12.5
2023-03-29T05:37:53.010Z,12.5
2023-03-29T05:52:54.096Z,12.5
2023-03-29T06:07:53.973Z,12.5
2023-03-29T06:23:01.846Z,12.5
2023-03-29T06:39:32.437Z,12.5
2023-03-29T06:53:03.921Z,12.6
2023-03-29T07:08:04.261Z,13.1
2023-03-29T08:08:14.091Z,14.3
2023-03-29T08:23:22.551Z,14.3
2023-03-29T08:38:23.746Z,14.3
2023-03-29T08:53:24.743Z,14.3
2023-03-29T09:08:24.518Z,14.2
2023-03-29T09:23:33.231Z,14.2
2023-03-29T09:38:34.196Z,14.1
2023-03-29T09:53:35.311Z,14.1
2023-03-29T10:08:34.797Z,13.3
2023-03-29T10:23:43.741Z,13.3
2023-03-29T10:38:44.857Z,13.3
2023-03-29T10:53:45.278Z,13.3
2023-03-29T11:08:44.752Z,13.1
2023-03-29T11:23:53.901Z,13.1
2023-03-29T12:08:54.982Z,12.9
2023-03-29T13:09:05.456Z,13
2023-03-29T13:24:13.559Z,13
2023-03-29T13:39:14.162Z,13
2023-03-29T13:54:15.502Z,13
2023-03-29T14:09:15.356Z,12.9
2023-03-29T14:24:24.210Z,12.9
2023-03-29T14:39:25.691Z,12.9
2023-03-29T14:54:26.275Z,12.9
2023-03-29T16:09:35.765Z,12.6
2023-03-29T16:24:44.397Z,12.6
2023-03-29T16:39:46.176Z,12.6
2023-03-29T18:09:57.164Z,12.5
2023-03-29T19:10:06.152Z,12.5
2023-03-29T19:25:14.502Z,12.5
2023-03-29T19:40:15.413Z,12.5
2023-03-29T19:55:16.746Z,12.5
2023-03-29T20:10:18.509Z,12.6
2023-03-29T20:25:27.997Z,12.6
2023-03-29T20:40:28.172Z,12.6
2023-03-29T20:55:29.325Z,12.6
2023-03-29T21:10:26.391Z,12.5
2023-03-29T21:25:34.692Z,12.5
2023-03-29T21:40:36.973Z,12.5
2023-03-29T21:55:50.715Z,12.5
